sensor_id;sensor_type;location;lat;lon;timestamp;P1;durP1;ratioP1;P2;durP2;ratioP2
67889;SDS011;54685;52.082;5.426;2022-09-01T00:01:46;4.53;;;1.30;;
67889;SDS011;54685;52.082;5.426;2022-09-01T00:04:17;4.05;;;1.42;;
67889;SDS011;54685;52.082;5.426;2022-09-01T00:06:46;3.80;;;1.50;;
67889;SDS011;54685;52.082;5.426;2022-09-01T00:09:15;2.28;;;1.20;;
67889;SDS011;54685;52.082;5.426;2022-09-01T00:11:48;3.13;;;1.25;;
67889;SDS011;54685;52.082;5.426;2022-09-01T00:14:18;2.17;;;1.20;;
67889;SDS011;54685;52.082;5.426;2022-09-01T00:16:57;3.67;;;1.25;;
67889;SDS011;54685;52.082;5.426;2022-09-01T00:19:25;2.22;;;1.25;;
67889;SDS011;54685;52.082;5.426;2022-09-01T00:21:52;2.72;;;1.40;;
67889;SDS011;54685;52.082;5.426;2022-09-01T00:24:19;2.33;;;1.38;;
67889;SDS011;54685;52.082;5.426;2022-09-01T00:26:46;3.38;;;1.50;;
67889;SDS011;54685;52.082;5.426;2022-09-01T00:29:14;4.13;;;1.50;;
67889;SDS011;54685;52.082;5.426;2022-09-01T00:31:41;3.88;;;1.40;;
67889;SDS011;54685;52.082;5.426;2022-09-01T00:34:08;3.60;;;1.08;;
67889;SDS011;54685;52.082;5.426;2022-09-01T00:36:36;6.10;;;1.67;;
67889;SDS011;54685;52.082;5.426;2022-09-01T00:39:03;3.25;;;1.40;;
67889;SDS011;54685;52.082;5.426;2022-09-01T00:41:32;4.53;;;1.42;;
67889;SDS011;54685;52.082;5.426;2022-09-01T00:44:05;3.83;;;1.40;;
67889;SDS011;54685;52.082;5.426;2022-09-01T00:46:35;1.98;;;1.20;;
67889;SDS011;54685;52.082;5.426;2022-09-01T00:49:18;3.28;;;1.40;;
67889;SDS011;54685;52.082;5.426;2022-09-01T00:51:50;5.05;;;1.30;;
67889;SDS011;54685;52.082;5.426;2022-09-01T00:54:22;3.72;;;1.48;;
67889;SDS011;54685;52.082;5.426;2022-09-01T00:56:51;2.35;;;1.25;;
67889;SDS011;54685;52.082;5.426;2022-09-01T00:59:23;7.82;;;1.40;;
67889;SDS011;54685;52.082;5.426;2022-09-01T01:01:52;2.35;;;1.67;;
67889;SDS011;54685;52.082;5.426;2022-09-01T01:04:20;3.22;;;1.35;;
67889;SDS011;54685;52.082;5.426;2022-09-01T01:06:49;2.90;;;1.25;;
67889;SDS011;54685;52.082;5.426;2022-09-01T01:09:24;4.72;;;1.38;;
67889;SDS011;54685;52.082;5.426;2022-09-01T01:11:52;3.63;;;1.58;;
67889;SDS011;54685;52.082;5.426;2022-09-01T01:14:19;2.92;;;1.60;;
67889;SDS011;54685;52.082;5.426;2022-09-01T01:16:47;3.90;;;1.75;;
67889;SDS011;54685;52.082;5.426;2022-09-01T01:22:18;3.60;;;1.73;;
67889;SDS011;54685;52.082;5.426;2022-09-01T01:25:09;1.70;;;1.58;;
67889;SDS011;54685;52.082;5.426;2022-09-01T01:27:38;6.90;;;1.38;;
67889;SDS011;54685;52.082;5.426;2022-09-01T01:30:09;2.30;;;1.40;;
67889;SDS011;54685;52.082;5.426;2022-09-01T01:32:38;2.83;;;1.48;;
67889;SDS011;54685;52.082;5.426;2022-09-01T01:35:10;4.60;;;1.67;;
67889;SDS011;54685;52.082;5.426;2022-09-01T01:37:42;2.70;;;1.52;;
67889;SDS011;54685;52.082;5.426;2022-09-01T01:40:13;4.45;;;1.45;;
67889;SDS011;54685;52.082;5.426;2022-09-01T01:42:45;5.20;;;1.75;;
67889;SDS011;54685;52.082;5.426;2022-09-01T01:45:14;5.40;;;1.63;;
67889;SDS011;54685;52.082;5.426;2022-09-01T01:47:43;4.63;;;1.70;;
67889;SDS011;54685;52.082;5.426;2022-09-01T01:50:16;4.32;;;1.60;;
67889;SDS011;54685;52.082;5.426;2022-09-01T01:52:44;6.97;;;1.92;;
67889;SDS011;54685;52.082;5.426;2022-09-01T01:55:11;2.90;;;1.50;;
67889;SDS011;54685;52.082;5.426;2022-09-01T01:57:44;3.35;;;1.55;;
67889;SDS011;54685;52.082;5.426;2022-09-01T02:00:19;2.28;;;1.50;;
67889;SDS011;54685;52.082;5.426;2022-09-01T02:02:55;5.28;;;1.80;;
67889;SDS011;54685;52.082;5.426;2022-09-01T02:05:27;4.10;;;2.08;;
67889;SDS011;54685;52.082;5.426;2022-09-01T02:08:01;6.20;;;1.90;;
67889;SDS011;54685;52.082;5.426;2022-09-01T02:10:31;5.63;;;1.67;;
67889;SDS011;54685;52.082;5.426;2022-09-01T02:13:01;3.08;;;2.05;;
67889;SDS011;54685;52.082;5.426;2022-09-01T02:15:31;5.60;;;1.77;;
67889;SDS011;54685;52.082;5.426;2022-09-01T02:18:13;3.35;;;1.60;;
67889;SDS011;54685;52.082;5.426;2022-09-01T02:20:42;1.88;;;1.55;;
67889;SDS011;54685;52.082;5.426;2022-09-01T02:23:09;4.85;;;1.95;;
67889;SDS011;54685;52.082;5.426;2022-09-01T02:25:38;3.53;;;1.70;;
67889;SDS011;54685;52.082;5.426;2022-09-01T02:28:30;2.60;;;1.75;;
67889;SDS011;54685;52.082;5.426;2022-09-01T02:31:01;5.87;;;1.73;;
67889;SDS011;54685;52.082;5.426;2022-09-01T02:33:30;3.92;;;1.58;;
67889;SDS011;54685;52.082;5.426;2022-09-01T02:35:59;2.97;;;2.08;;
67889;SDS011;54685;52.082;5.426;2022-09-01T02:38:27;2.53;;;1.75;;
67889;SDS011;54685;52.082;5.426;2022-09-01T02:40:56;3.80;;;1.80;;
67889;SDS011;54685;52.082;5.426;2022-09-01T02:43:24;5.88;;;1.90;;
67889;SDS011;54685;52.082;5.426;2022-09-01T02:45:54;6.55;;;1.70;;
67889;SDS011;54685;52.082;5.426;2022-09-01T02:48:32;3.00;;;2.30;;
67889;SDS011;54685;52.082;5.426;2022-09-01T02:51:04;5.88;;;1.90;;
67889;SDS011;54685;52.082;5.426;2022-09-01T02:53:37;7.15;;;2.20;;
67889;SDS011;54685;52.082;5.426;2022-09-01T02:56:05;5.07;;;1.90;;
67889;SDS011;54685;52.082;5.426;2022-09-01T02:58:37;4.13;;;1.83;;
67889;SDS011;54685;52.082;5.426;2022-09-01T03:01:15;7.90;;;2.15;;
67889;SDS011;54685;52.082;5.426;2022-09-01T03:03:47;5.65;;;2.13;;
67889;SDS011;54685;52.082;5.426;2022-09-01T03:06:15;4.40;;;1.92;;
67889;SDS011;54685;52.082;5.426;2022-09-01T03:08:45;3.65;;;1.88;;
67889;SDS011;54685;52.082;5.426;2022-09-01T03:11:12;3.35;;;1.75;;
67889;SDS011;54685;52.082;5.426;2022-09-01T03:13:40;3.67;;;2.28;;
67889;SDS011;54685;52.082;5.426;2022-09-01T03:16:09;5.45;;;2.00;;
67889;SDS011;54685;52.082;5.426;2022-09-01T03:18:37;3.70;;;2.00;;
67889;SDS011;54685;52.082;5.426;2022-09-01T03:21:06;3.88;;;2.00;;
67889;SDS011;54685;52.082;5.426;2022-09-01T03:23:35;3.63;;;2.00;;
67889;SDS011;54685;52.082;5.426;2022-09-01T03:26:03;3.05;;;1.88;;
67889;SDS011;54685;52.082;5.426;2022-09-01T03:28:30;4.55;;;2.15;;
67889;SDS011;54685;52.082;5.426;2022-09-01T03:30:58;3.50;;;2.00;;
67889;SDS011;54685;52.082;5.426;2022-09-01T03:33:26;5.45;;;2.55;;
67889;SDS011;54685;52.082;5.426;2022-09-01T03:35:54;4.63;;;1.98;;
67889;SDS011;54685;52.082;5.426;2022-09-01T03:38:22;3.47;;;2.10;;
67889;SDS011;54685;52.082;5.426;2022-09-01T03:40:52;5.55;;;2.08;;
67889;SDS011;54685;52.082;5.426;2022-09-01T03:43:24;3.13;;;1.95;;
67889;SDS011;54685;52.082;5.426;2022-09-01T03:46:00;4.18;;;1.95;;
67889;SDS011;54685;52.082;5.426;2022-09-01T03:48:28;2.10;;;1.90;;
67889;SDS011;54685;52.082;5.426;2022-09-01T03:50:57;6.72;;;2.30;;
67889;SDS011;54685;52.082;5.426;2022-09-01T03:53:32;8.93;;;2.28;;
67889;SDS011;54685;52.082;5.426;2022-09-01T03:56:03;2.50;;;2.20;;
67889;SDS011;54685;52.082;5.426;2022-09-01T03:58:31;6.47;;;2.10;;
67889;SDS011;54685;52.082;5.426;2022-09-01T04:00:59;5.05;;;2.08;;
67889;SDS011;54685;52.082;5.426;2022-09-01T04:03:29;3.33;;;2.38;;
67889;SDS011;54685;52.082;5.426;2022-09-01T04:06:02;4.60;;;1.90;;
67889;SDS011;54685;52.082;5.426;2022-09-01T04:08:31;12.85;;;2.10;;
67889;SDS011;54685;52.082;5.426;2022-09-01T04:11:00;4.32;;;2.10;;
67889;SDS011;54685;52.082;5.426;2022-09-01T04:13:36;4.22;;;1.80;;
67889;SDS011;54685;52.082;5.426;2022-09-01T04:16:05;6.88;;;1.98;;
67889;SDS011;54685;52.082;5.426;2022-09-01T04:19:02;3.65;;;2.00;;
67889;SDS011;54685;52.082;5.426;2022-09-01T04:21:41;4.80;;;2.00;;
67889;SDS011;54685;52.082;5.426;2022-09-01T04:24:09;2.83;;;1.70;;
67889;SDS011;54685;52.082;5.426;2022-09-01T04:26:38;2.25;;;2.00;;
67889;SDS011;54685;52.082;5.426;2022-09-01T04:29:06;6.78;;;2.10;;
67889;SDS011;54685;52.082;5.426;2022-09-01T04:31:34;6.50;;;2.30;;
67889;SDS011;54685;52.082;5.426;2022-09-01T04:34:03;3.13;;;2.20;;
67889;SDS011;54685;52.082;5.426;2022-09-01T04:36:41;2.20;;;1.75;;
67889;SDS011;54685;52.082;5.426;2022-09-01T04:39:10;3.47;;;2.28;;
67889;SDS011;54685;52.082;5.426;2022-09-01T04:41:40;6.50;;;2.13;;
67889;SDS011;54685;52.082;5.426;2022-09-01T04:44:11;8.98;;;2.45;;
67889;SDS011;54685;52.082;5.426;2022-09-01T04:46:42;5.18;;;2.10;;
67889;SDS011;54685;52.082;5.426;2022-09-01T04:49:13;6.13;;;2.28;;
67889;SDS011;54685;52.082;5.426;2022-09-01T04:51:46;2.55;;;2.15;;
67889;SDS011;54685;52.082;5.426;2022-09-01T04:54:19;4.68;;;2.28;;
67889;SDS011;54685;52.082;5.426;2022-09-01T04:56:48;5.50;;;2.28;;
67889;SDS011;54685;52.082;5.426;2022-09-01T04:59:17;4.30;;;2.30;;
67889;SDS011;54685;52.082;5.426;2022-09-01T05:01:50;4.47;;;2.47;;
67889;SDS011;54685;52.082;5.426;2022-09-01T05:04:21;7.90;;;2.03;;
67889;SDS011;54685;52.082;5.426;2022-09-01T05:06:52;7.15;;;2.15;;
67889;SDS011;54685;52.082;5.426;2022-09-01T05:09:34;6.07;;;2.10;;
67889;SDS011;54685;52.082;5.426;2022-09-01T05:12:08;4.53;;;2.50;;
67889;SDS011;54685;52.082;5.426;2022-09-01T05:14:44;6.22;;;2.13;;
67889;SDS011;54685;52.082;5.426;2022-09-01T05:17:17;2.92;;;1.90;;
67889;SDS011;54685;52.082;5.426;2022-09-01T05:19:46;2.95;;;2.30;;
67889;SDS011;54685;52.082;5.426;2022-09-01T05:22:16;6.40;;;1.90;;
67889;SDS011;54685;52.082;5.426;2022-09-01T05:24:54;6.32;;;2.15;;
67889;SDS011;54685;52.082;5.426;2022-09-01T05:27:22;3.97;;;2.00;;
67889;SDS011;54685;52.082;5.426;2022-09-01T05:29:49;10.00;;;2.20;;
67889;SDS011;54685;52.082;5.426;2022-09-01T05:32:15;4.45;;;2.42;;
67889;SDS011;54685;52.082;5.426;2022-09-01T05:34:43;7.03;;;2.38;;
67889;SDS011;54685;52.082;5.426;2022-09-01T05:37:11;10.52;;;2.13;;
67889;SDS011;54685;52.082;5.426;2022-09-01T05:39:39;7.25;;;2.22;;
67889;SDS011;54685;52.082;5.426;2022-09-01T05:42:06;3.88;;;2.10;;
67889;SDS011;54685;52.082;5.426;2022-09-01T05:44:35;6.32;;;2.30;;
67889;SDS011;54685;52.082;5.426;2022-09-01T05:47:10;5.13;;;2.75;;
67889;SDS011;54685;52.082;5.426;2022-09-01T05:49:47;2.67;;;1.85;;
67889;SDS011;54685;52.082;5.426;2022-09-01T05:52:15;7.47;;;2.50;;
67889;SDS011;54685;52.082;5.426;2022-09-01T05:54:42;3.95;;;2.13;;
67889;SDS011;54685;52.082;5.426;2022-09-01T05:57:14;8.20;;;2.58;;
67889;SDS011;54685;52.082;5.426;2022-09-01T05:59:59;12.27;;;2.92;;
67889;SDS011;54685;52.082;5.426;2022-09-01T06:02:27;13.23;;;2.60;;
67889;SDS011;54685;52.082;5.426;2022-09-01T06:05:00;9.77;;;2.47;;
67889;SDS011;54685;52.082;5.426;2022-09-01T06:07:30;8.43;;;2.03;;
67889;SDS011;54685;52.082;5.426;2022-09-01T06:09:59;6.28;;;2.03;;
67889;SDS011;54685;52.082;5.426;2022-09-01T06:12:26;7.07;;;2.55;;
67889;SDS011;54685;52.082;5.426;2022-09-01T06:14:54;7.18;;;1.98;;
67889;SDS011;54685;52.082;5.426;2022-09-01T06:17:24;9.30;;;2.40;;
67889;SDS011;54685;52.082;5.426;2022-09-01T06:19:56;3.97;;;2.00;;
67889;SDS011;54685;52.082;5.426;2022-09-01T06:22:25;7.68;;;2.20;;
67889;SDS011;54685;52.082;5.426;2022-09-01T06:24:55;6.78;;;2.40;;
67889;SDS011;54685;52.082;5.426;2022-09-01T06:27:32;6.32;;;2.13;;
67889;SDS011;54685;52.082;5.426;2022-09-01T06:30:04;4.32;;;1.80;;
67889;SDS011;54685;52.082;5.426;2022-09-01T06:32:47;10.85;;;2.00;;
67889;SDS011;54685;52.082;5.426;2022-09-01T06:35:15;8.60;;;2.00;;
67889;SDS011;54685;52.082;5.426;2022-09-01T06:37:43;5.60;;;2.33;;
67889;SDS011;54685;52.082;5.426;2022-09-01T06:40:19;10.88;;;2.30;;
67889;SDS011;54685;52.082;5.426;2022-09-01T06:42:47;8.43;;;2.00;;
67889;SDS011;54685;52.082;5.426;2022-09-01T06:45:17;5.88;;;2.15;;
67889;SDS011;54685;52.082;5.426;2022-09-01T06:47:46;12.95;;;1.90;;
67889;SDS011;54685;52.082;5.426;2022-09-01T06:50:18;6.88;;;2.05;;
67889;SDS011;54685;52.082;5.426;2022-09-01T06:53:07;6.60;;;2.00;;
67889;SDS011;54685;52.082;5.426;2022-09-01T06:56:02;9.85;;;2.10;;
67889;SDS011;54685;52.082;5.426;2022-09-01T06:58:30;8.07;;;1.88;;
67889;SDS011;54685;52.082;5.426;2022-09-01T07:00:57;4.90;;;1.73;;
67889;SDS011;54685;52.082;5.426;2022-09-01T07:03:24;3.53;;;1.83;;
67889;SDS011;54685;52.082;5.426;2022-09-01T07:06:17;7.68;;;1.80;;
67889;SDS011;54685;52.082;5.426;2022-09-01T07:09:15;3.72;;;1.48;;
67889;SDS011;54685;52.082;5.426;2022-09-01T07:12:13;8.98;;;1.75;;
67889;SDS011;54685;52.082;5.426;2022-09-01T07:17:46;5.63;;;1.50;;
67889;SDS011;54685;52.082;5.426;2022-09-01T07:20:17;6.13;;;1.40;;
67889;SDS011;54685;52.082;5.426;2022-09-01T07:23:07;4.30;;;1.35;;
67889;SDS011;54685;52.082;5.426;2022-09-01T07:25:40;9.20;;;1.30;;
67889;SDS011;54685;52.082;5.426;2022-09-01T07:28:31;2.95;;;1.17;;
67889;SDS011;54685;52.082;5.426;2022-09-01T07:31:20;2.90;;;1.55;;
67889;SDS011;54685;52.082;5.426;2022-09-01T07:34:14;5.78;;;1.00;;
67889;SDS011;54685;52.082;5.426;2022-09-01T07:37:03;2.47;;;1.20;;
67889;SDS011;54685;52.082;5.426;2022-09-01T07:39:50;2.45;;;1.20;;
67889;SDS011;54685;52.082;5.426;2022-09-01T07:42:37;2.38;;;0.90;;
67889;SDS011;54685;52.082;5.426;2022-09-01T07:45:45;2.75;;;1.00;;
67889;SDS011;54685;52.082;5.426;2022-09-01T07:48:25;5.57;;;1.17;;
67889;SDS011;54685;52.082;5.426;2022-09-01T07:51:14;3.35;;;0.88;;
67889;SDS011;54685;52.082;5.426;2022-09-01T07:54:02;1.50;;;0.90;;
67889;SDS011;54685;52.082;5.426;2022-09-01T07:56:29;4.60;;;1.13;;
67889;SDS011;54685;52.082;5.426;2022-09-01T07:58:56;4.90;;;1.38;;
67889;SDS011;54685;52.082;5.426;2022-09-01T08:01:25;3.85;;;1.10;;
67889;SDS011;54685;52.082;5.426;2022-09-01T08:03:57;7.25;;;1.20;;
67889;SDS011;54685;52.082;5.426;2022-09-01T08:06:26;7.45;;;1.25;;
67889;SDS011;54685;52.082;5.426;2022-09-01T08:09:03;5.85;;;1.27;;
67889;SDS011;54685;52.082;5.426;2022-09-01T08:11:36;3.55;;;1.15;;
67889;SDS011;54685;52.082;5.426;2022-09-01T08:14:23;7.40;;;1.27;;
67889;SDS011;54685;52.082;5.426;2022-09-01T08:16:50;2.35;;;1.00;;
67889;SDS011;54685;52.082;5.426;2022-09-01T08:19:18;6.28;;;0.93;;
67889;SDS011;54685;52.082;5.426;2022-09-01T08:22:10;5.47;;;1.13;;
67889;SDS011;54685;52.082;5.426;2022-09-01T08:24:51;3.22;;;1.08;;
67889;SDS011;54685;52.082;5.426;2022-09-01T08:27:19;2.85;;;1.10;;
67889;SDS011;54685;52.082;5.426;2022-09-01T08:29:46;3.25;;;1.10;;
67889;SDS011;54685;52.082;5.426;2022-09-01T08:32:14;4.80;;;0.90;;
67889;SDS011;54685;52.082;5.426;2022-09-01T08:34:43;6.40;;;1.30;;
67889;SDS011;54685;52.082;5.426;2022-09-01T08:37:10;3.50;;;0.98;;
67889;SDS011;54685;52.082;5.426;2022-09-01T08:39:38;2.83;;;1.00;;
67889;SDS011;54685;52.082;5.426;2022-09-01T08:42:08;3.58;;;1.00;;
67889;SDS011;54685;52.082;5.426;2022-09-01T08:45:03;5.05;;;0.80;;
67889;SDS011;54685;52.082;5.426;2022-09-01T08:47:46;7.35;;;1.13;;
67889;SDS011;54685;52.082;5.426;2022-09-01T08:50:33;1.73;;;0.90;;
67889;SDS011;54685;52.082;5.426;2022-09-01T08:56:24;1.83;;;0.90;;
67889;SDS011;54685;52.082;5.426;2022-09-01T08:58:52;1.25;;;0.70;;
67889;SDS011;54685;52.082;5.426;2022-09-01T09:07:21;2.95;;;0.90;;
67889;SDS011;54685;52.082;5.426;2022-09-01T09:10:20;1.42;;;0.75;;
67889;SDS011;54685;52.082;5.426;2022-09-01T09:12:51;3.50;;;0.90;;
67889;SDS011;54685;52.082;5.426;2022-09-01T09:18:18;3.95;;;0.90;;
67889;SDS011;54685;52.082;5.426;2022-09-01T09:21:16;2.90;;;1.00;;
67889;SDS011;54685;52.082;5.426;2022-09-01T09:23:49;4.75;;;1.38;;
67889;SDS011;54685;52.082;5.426;2022-09-01T09:26:32;7.93;;;0.82;;
67889;SDS011;54685;52.082;5.426;2022-09-01T09:29:14;6.38;;;1.15;;
67889;SDS011;54685;52.082;5.426;2022-09-01T09:31:41;6.18;;;0.90;;
67889;SDS011;54685;52.082;5.426;2022-09-01T09:37:15;2.83;;;0.80;;
67889;SDS011;54685;52.082;5.426;2022-09-01T09:40:06;4.90;;;0.90;;
67889;SDS011;54685;52.082;5.426;2022-09-01T09:42:38;9.40;;;1.20;;
67889;SDS011;54685;52.082;5.426;2022-09-01T09:45:15;5.15;;;1.33;;
67889;SDS011;54685;52.082;5.426;2022-09-01T09:47:46;3.33;;;1.00;;
67889;SDS011;54685;52.082;5.426;2022-09-01T09:50:30;4.13;;;0.90;;
67889;SDS011;54685;52.082;5.426;2022-09-01T09:53:12;8.70;;;0.93;;
67889;SDS011;54685;52.082;5.426;2022-09-01T09:55:58;6.55;;;0.90;;
67889;SDS011;54685;52.082;5.426;2022-09-01T09:58:43;4.50;;;1.00;;
67889;SDS011;54685;52.082;5.426;2022-09-01T10:01:13;2.25;;;0.82;;
67889;SDS011;54685;52.082;5.426;2022-09-01T10:03:55;1.40;;;0.70;;
67889;SDS011;54685;52.082;5.426;2022-09-01T10:09:00;4.28;;;0.80;;
67889;SDS011;54685;52.082;5.426;2022-09-01T10:11:36;2.78;;;0.90;;
67889;SDS011;54685;52.082;5.426;2022-09-01T10:17:05;3.15;;;0.70;;
67889;SDS011;54685;52.082;5.426;2022-09-01T10:19:53;2.85;;;0.75;;
67889;SDS011;54685;52.082;5.426;2022-09-01T10:22:22;6.40;;;1.00;;
67889;SDS011;54685;52.082;5.426;2022-09-01T10:24:51;5.82;;;0.70;;
67889;SDS011;54685;52.082;5.426;2022-09-01T10:27:22;2.25;;;0.70;;
67889;SDS011;54685;52.082;5.426;2022-09-01T10:30:04;2.55;;;1.10;;
67889;SDS011;54685;52.082;5.426;2022-09-01T10:32:54;5.28;;;1.08;;
67889;SDS011;54685;52.082;5.426;2022-09-01T10:35:36;5.47;;;1.10;;
67889;SDS011;54685;52.082;5.426;2022-09-01T10:38:14;4.00;;;0.82;;
67889;SDS011;54685;52.082;5.426;2022-09-01T10:40:44;3.47;;;1.00;;
67889;SDS011;54685;52.082;5.426;2022-09-01T10:43:24;3.40;;;1.00;;
67889;SDS011;54685;52.082;5.426;2022-09-01T10:46:08;3.35;;;0.85;;
67889;SDS011;54685;52.082;5.426;2022-09-01T10:48:52;3.22;;;1.17;;
67889;SDS011;54685;52.082;5.426;2022-09-01T10:54:03;2.35;;;0.90;;
67889;SDS011;54685;52.082;5.426;2022-09-01T10:56:45;6.30;;;0.70;;
67889;SDS011;54685;52.082;5.426;2022-09-01T11:02:16;5.85;;;0.95;;
67889;SDS011;54685;52.082;5.426;2022-09-01T11:07:31;3.55;;;1.10;;
67889;SDS011;54685;52.082;5.426;2022-09-01T11:10:31;4.72;;;0.80;;
67889;SDS011;54685;52.082;5.426;2022-09-01T11:13:20;2.13;;;0.93;;
67889;SDS011;54685;52.082;5.426;2022-09-01T11:19:25;3.40;;;0.80;;
67889;SDS011;54685;52.082;5.426;2022-09-01T11:22:13;2.90;;;0.73;;
67889;SDS011;54685;52.082;5.426;2022-09-01T11:24:49;0.95;;;0.60;;
67889;SDS011;54685;52.082;5.426;2022-09-01T11:30:39;3.53;;;0.80;;
67889;SDS011;54685;52.082;5.426;2022-09-01T11:35:58;0.90;;;0.80;;
67889;SDS011;54685;52.082;5.426;2022-09-01T11:38:32;1.98;;;0.90;;
67889;SDS011;54685;52.082;5.426;2022-09-01T11:41:19;5.22;;;0.80;;
67889;SDS011;54685;52.082;5.426;2022-09-01T11:43:51;3.47;;;0.80;;
67889;SDS011;54685;52.082;5.426;2022-09-01T11:46:41;2.13;;;0.77;;
67889;SDS011;54685;52.082;5.426;2022-09-01T11:51:56;2.67;;;0.70;;
67889;SDS011;54685;52.082;5.426;2022-09-01T11:54:26;2.95;;;0.50;;
67889;SDS011;54685;52.082;5.426;2022-09-01T11:56:54;0.93;;;0.70;;
67889;SDS011;54685;52.082;5.426;2022-09-01T11:59:31;0.98;;;0.60;;
67889;SDS011;54685;52.082;5.426;2022-09-01T12:02:00;1.80;;;0.70;;
67889;SDS011;54685;52.082;5.426;2022-09-01T12:04:32;2.72;;;0.77;;
67889;SDS011;54685;52.082;5.426;2022-09-01T12:07:05;3.40;;;0.60;;
67889;SDS011;54685;52.082;5.426;2022-09-01T12:09:43;2.72;;;0.82;;
67889;SDS011;54685;52.082;5.426;2022-09-01T12:12:26;4.40;;;0.80;;
67889;SDS011;54685;52.082;5.426;2022-09-01T12:15:00;2.80;;;0.90;;
67889;SDS011;54685;52.082;5.426;2022-09-01T12:17:32;4.75;;;0.80;;
67889;SDS011;54685;52.082;5.426;2022-09-01T12:23:00;3.38;;;0.80;;
67889;SDS011;54685;52.082;5.426;2022-09-01T12:25:31;1.40;;;0.70;;
67889;SDS011;54685;52.082;5.426;2022-09-01T12:27:59;1.45;;;0.95;;
67889;SDS011;54685;52.082;5.426;2022-09-01T12:30:28;3.00;;;0.73;;
67889;SDS011;54685;52.082;5.426;2022-09-01T12:33:02;4.38;;;0.73;;
67889;SDS011;54685;52.082;5.426;2022-09-01T12:35:49;4.65;;;0.80;;
67889;SDS011;54685;52.082;5.426;2022-09-01T12:38:22;1.98;;;0.80;;
67889;SDS011;54685;52.082;5.426;2022-09-01T12:40:54;4.57;;;0.95;;
67889;SDS011;54685;52.082;5.426;2022-09-01T12:43:35;2.03;;;0.82;;
67889;SDS011;54685;52.082;5.426;2022-09-01T12:46:05;3.95;;;1.00;;
67889;SDS011;54685;52.082;5.426;2022-09-01T12:48:37;3.30;;;1.00;;
67889;SDS011;54685;52.082;5.426;2022-09-01T12:51:06;2.08;;;0.70;;
67889;SDS011;54685;52.082;5.426;2022-09-01T12:53:51;4.70;;;0.82;;
67889;SDS011;54685;52.082;5.426;2022-09-01T12:56:33;1.08;;;0.70;;
67889;SDS011;54685;52.082;5.426;2022-09-01T12:59:20;3.70;;;0.90;;
67889;SDS011;54685;52.082;5.426;2022-09-01T13:05:16;2.40;;;0.55;;
67889;SDS011;54685;52.082;5.426;2022-09-01T13:07:57;5.55;;;0.80;;
67889;SDS011;54685;52.082;5.426;2022-09-01T13:10:27;2.30;;;0.98;;
67889;SDS011;54685;52.082;5.426;2022-09-01T13:12:58;5.53;;;1.08;;
67889;SDS011;54685;52.082;5.426;2022-09-01T13:15:25;3.55;;;0.70;;
67889;SDS011;54685;52.082;5.426;2022-09-01T13:17:53;1.80;;;0.82;;
67889;SDS011;54685;52.082;5.426;2022-09-01T13:20:19;1.60;;;0.88;;
67889;SDS011;54685;52.082;5.426;2022-09-01T13:22:46;3.33;;;0.90;;
67889;SDS011;54685;52.082;5.426;2022-09-01T13:25:15;1.05;;;0.60;;
67889;SDS011;54685;52.082;5.426;2022-09-01T13:27:44;2.70;;;0.80;;
67889;SDS011;54685;52.082;5.426;2022-09-01T13:30:14;5.43;;;1.10;;
67889;SDS011;54685;52.082;5.426;2022-09-01T13:32:44;4.22;;;1.00;;
67889;SDS011;54685;52.082;5.426;2022-09-01T13:35:32;3.25;;;0.80;;
67889;SDS011;54685;52.082;5.426;2022-09-01T13:37:58;2.13;;;0.70;;
67889;SDS011;54685;52.082;5.426;2022-09-01T13:40:25;2.42;;;0.90;;
67889;SDS011;54685;52.082;5.426;2022-09-01T13:42:55;6.13;;;0.88;;
67889;SDS011;54685;52.082;5.426;2022-09-01T13:45:22;6.53;;;0.82;;
67889;SDS011;54685;52.082;5.426;2022-09-01T13:47:51;0.88;;;0.60;;
67889;SDS011;54685;52.082;5.426;2022-09-01T13:50:38;2.05;;;0.80;;
67889;SDS011;54685;52.082;5.426;2022-09-01T13:53:26;5.75;;;1.00;;
67889;SDS011;54685;52.082;5.426;2022-09-01T13:55:52;2.58;;;0.85;;
67889;SDS011;54685;52.082;5.426;2022-09-01T13:58:20;1.45;;;0.80;;
67889;SDS011;54685;52.082;5.426;2022-09-01T14:00:47;6.93;;;1.00;;
67889;SDS011;54685;52.082;5.426;2022-09-01T14:03:18;1.67;;;0.90;;
67889;SDS011;54685;52.082;5.426;2022-09-01T14:05:47;2.60;;;1.00;;
67889;SDS011;54685;52.082;5.426;2022-09-01T14:08:16;3.22;;;1.00;;
67889;SDS011;54685;52.082;5.426;2022-09-01T14:10:46;2.28;;;0.70;;
67889;SDS011;54685;52.082;5.426;2022-09-01T14:13:16;3.60;;;0.82;;
67889;SDS011;54685;52.082;5.426;2022-09-01T14:15:44;4.72;;;0.80;;
67889;SDS011;54685;52.082;5.426;2022-09-01T14:18:12;6.05;;;1.00;;
67889;SDS011;54685;52.082;5.426;2022-09-01T14:20:44;3.57;;;1.10;;
67889;SDS011;54685;52.082;5.426;2022-09-01T14:23:13;5.00;;;1.15;;
67889;SDS011;54685;52.082;5.426;2022-09-01T14:25:43;1.58;;;1.00;;
67889;SDS011;54685;52.082;5.426;2022-09-01T14:28:13;4.90;;;0.95;;
67889;SDS011;54685;52.082;5.426;2022-09-01T14:30:45;1.05;;;0.70;;
67889;SDS011;54685;52.082;5.426;2022-09-01T14:33:12;6.57;;;1.30;;
67889;SDS011;54685;52.082;5.426;2022-09-01T14:35:43;3.30;;;0.85;;
67889;SDS011;54685;52.082;5.426;2022-09-01T14:38:12;2.70;;;1.00;;
67889;SDS011;54685;52.082;5.426;2022-09-01T14:40:40;2.05;;;0.77;;
67889;SDS011;54685;52.082;5.426;2022-09-01T14:43:09;2.33;;;0.90;;
67889;SDS011;54685;52.082;5.426;2022-09-01T14:45:40;1.48;;;0.88;;
67889;SDS011;54685;52.082;5.426;2022-09-01T14:48:16;3.97;;;0.85;;
67889;SDS011;54685;52.082;5.426;2022-09-01T14:50:47;3.00;;;0.90;;
67889;SDS011;54685;52.082;5.426;2022-09-01T14:53:15;5.55;;;0.80;;
67889;SDS011;54685;52.082;5.426;2022-09-01T14:55:43;3.30;;;1.00;;
67889;SDS011;54685;52.082;5.426;2022-09-01T14:58:11;5.88;;;0.90;;
67889;SDS011;54685;52.082;5.426;2022-09-01T15:00:38;4.22;;;0.90;;
67889;SDS011;54685;52.082;5.426;2022-09-01T15:03:07;1.55;;;0.80;;
67889;SDS011;54685;52.082;5.426;2022-09-01T15:05:35;4.25;;;1.00;;
67889;SDS011;54685;52.082;5.426;2022-09-01T15:08:05;4.95;;;1.00;;
67889;SDS011;54685;52.082;5.426;2022-09-01T15:10:33;2.22;;;0.82;;
67889;SDS011;54685;52.082;5.426;2022-09-01T15:13:01;2.08;;;0.93;;
67889;SDS011;54685;52.082;5.426;2022-09-01T15:15:29;3.33;;;0.90;;
67889;SDS011;54685;52.082;5.426;2022-09-01T15:17:57;3.30;;;0.90;;
67889;SDS011;54685;52.082;5.426;2022-09-01T15:20:25;1.50;;;0.93;;
67889;SDS011;54685;52.082;5.426;2022-09-01T15:23:16;7.05;;;0.82;;
67889;SDS011;54685;52.082;5.426;2022-09-01T15:25:49;2.20;;;0.82;;
67889;SDS011;54685;52.082;5.426;2022-09-01T15:28:18;5.75;;;0.90;;
67889;SDS011;54685;52.082;5.426;2022-09-01T15:30:46;4.22;;;0.68;;
67889;SDS011;54685;52.082;5.426;2022-09-01T15:33:13;2.83;;;0.90;;
67889;SDS011;54685;52.082;5.426;2022-09-01T15:35:42;1.23;;;0.80;;
67889;SDS011;54685;52.082;5.426;2022-09-01T15:38:10;6.10;;;1.05;;
67889;SDS011;54685;52.082;5.426;2022-09-01T15:40:45;2.22;;;0.90;;
67889;SDS011;54685;52.082;5.426;2022-09-01T15:43:23;3.35;;;0.82;;
67889;SDS011;54685;52.082;5.426;2022-09-01T15:45:51;2.85;;;0.70;;
67889;SDS011;54685;52.082;5.426;2022-09-01T15:48:18;1.25;;;0.70;;
67889;SDS011;54685;52.082;5.426;2022-09-01T15:50:44;2.55;;;0.93;;
67889;SDS011;54685;52.082;5.426;2022-09-01T15:53:11;3.22;;;1.00;;
67889;SDS011;54685;52.082;5.426;2022-09-01T15:58:11;5.63;;;0.90;;
67889;SDS011;54685;52.082;5.426;2022-09-01T16:00:41;1.27;;;0.80;;
67889;SDS011;54685;52.082;5.426;2022-09-01T16:03:09;5.22;;;1.00;;
67889;SDS011;54685;52.082;5.426;2022-09-01T16:05:37;2.53;;;0.90;;
67889;SDS011;54685;52.082;5.426;2022-09-01T16:08:05;2.00;;;0.88;;
67889;SDS011;54685;52.082;5.426;2022-09-01T16:10:37;3.90;;;0.75;;
67889;SDS011;54685;52.082;5.426;2022-09-01T16:13:05;2.22;;;0.73;;
67889;SDS011;54685;52.082;5.426;2022-09-01T16:15:33;5.20;;;1.10;;
67889;SDS011;54685;52.082;5.426;2022-09-01T16:18:15;2.60;;;1.20;;
67889;SDS011;54685;52.082;5.426;2022-09-01T16:23:40;4.95;;;1.08;;